Time;durP1;ratioP1;P1;durP2;ratioP2;P2;SDS_P1;SDS_P2;PMS_P1;PMS_P2;Temp;Humidity;BMP_temperature;BMP_pressure;BME280_temperature;BME280_humidity;BME280_pressure;Samples;Min_cycle;Max_cycle;Signal;HPM_P1;HPM_P2
2022/01/24 00:02:21;;;;;;;8.57;5.35;;;-8.40;99.90;;;;;;4396874;32;20093;-66
2022/01/24 00:04:49;;;;;;;9.60;5.50;;;-8.40;99.90;;;;;;4394226;32;20096;-67
2022/01/24 00:07:19;;;;;;;12.52;6.32;;;-8.40;99.90;;;;;;4393360;32;20070;-67
2022/01/24 00:09:46;;;;;;;9.63;5.37;;;-8.30;99.90;;;;;;4393288;32;20073;-66
2022/01/24 00:12:18;;;;;;;10.50;5.62;;;-8.20;99.90;;;;;;4380687;32;20081;-66
2022/01/24 00:15:00;;;;;;;11.20;5.53;;;-8.30;99.90;;;;;;4393340;32;20085;-66
2022/01/24 00:28:17;;;;;;;11.32;6.50;;;-8.00;99.90;;;;;;4381100;32;20078;-67
2022/01/24 00:30:44;;;;;;;14.18;6.68;;;-8.10;99.90;;;;;;4379412;32;20074;-66
2022/01/24 00:33:10;;;;;;;11.73;6.10;;;-8.00;99.90;;;;;;4391725;32;20081;-67
2022/01/24 00:35:36;;;;;;;11.80;6.12;;;-8.30;99.90;;;;;;4393051;32;20128;-67
2022/01/24 00:38:03;;;;;;;10.77;5.90;;;-8.10;99.90;;;;;;4391601;32;20555;-66
2022/01/24 00:40:38;;;;;;;9.88;5.85;;;-8.30;99.90;;;;;;4391746;32;20088;-67
2022/01/24 00:43:17;;;;;;;11.38;6.40;;;-8.30;99.90;;;;;;4380087;32;20061;-66
2022/01/24 00:48:30;;;;;;;11.03;6.93;;;-8.30;99.90;;;;;;4392706;32;20607;-65
2022/01/24 00:56:12;;;;;;;13.77;8.18;;;-8.60;99.90;;;;;;4393077;32;20080;-66
2022/01/24 00:58:39;;;;;;;16.35;7.43;;;-8.60;99.90;;;;;;4379339;32;20085;-67
2022/01/24 01:01:06;;;;;;;13.50;7.03;;;-8.70;99.90;;;;;;4391565;32;20160;-67
2022/01/24 01:03:33;;;;;;;13.32;7.30;;;-8.70;99.90;;;;;;4392591;32;20531;-66
2022/01/24 01:06:07;;;;;;;14.30;8.05;;;-8.80;99.90;;;;;;4391854;32;20093;-66
2022/01/24 01:19:39;;;;;;;12.73;7.05;;;-8.80;99.90;;;;;;4392347;32;20205;-66
2022/01/24 01:22:06;;;;;;;12.63;6.62;;;-8.80;99.90;;;;;;4392668;32;20531;-66
2022/01/24 01:24:38;;;;;;;9.57;6.35;;;-8.90;99.90;;;;;;4378803;32;20082;-67
2022/01/24 01:27:11;;;;;;;12.52;6.50;;;-8.90;99.90;;;;;;4390957;32;20081;-66
2022/01/24 01:29:53;;;;;;;9.43;5.85;;;-8.80;99.90;;;;;;4392237;32;20089;-66
2022/01/24 01:35:06;;;;;;;10.82;6.62;;;-8.90;99.90;;;;;;4394156;32;20119;-66
2022/01/24 01:54:15;;;;;;;8.57;5.93;;;-9.00;99.90;;;;;;4379376;32;20628;-67
2022/01/24 01:56:41;;;;;;;10.82;6.62;;;-8.90;99.90;;;;;;4390630;32;20082;-66
2022/01/24 01:59:08;;;;;;;10.10;6.75;;;-9.10;99.90;;;;;;4390269;32;20456;-66
2022/01/24 02:01:34;;;;;;;12.27;7.55;;;-9.10;99.90;;;;;;4390429;32;20084;-67
2022/01/24 02:04:03;;;;;;;9.80;6.25;;;-9.20;99.90;;;;;;4390158;32;20156;-67
2022/01/24 02:06:31;;;;;;;11.30;6.43;;;-9.20;99.90;;;;;;4391934;32;20085;-66
2022/01/24 02:09:04;;;;;;;13.13;8.50;;;-9.00;99.90;;;;;;4366001;32;20088;-67
2022/01/24 02:11:31;;;;;;;11.95;7.10;;;-9.30;99.90;;;;;;4378189;32;20081;-66
2022/01/24 02:14:02;;;;;;;13.85;7.65;;;-9.20;99.90;;;;;;4391388;32;20463;-66
2022/01/24 02:19:25;;;;;;;;;;;-9.40;99.90;;;;;;4390884;32;20076;-66
2022/01/24 02:24:41;;;;;;;10.82;7.32;;;-9.50;99.90;;;;;;4391534;32;20116;-67
2022/01/24 02:27:09;;;;;;;13.57;8.75;;;-9.50;99.90;;;;;;4391795;32;20080;-68
2022/01/24 02:29:53;;;;;;;11.57;7.47;;;-9.60;99.90;;;;;;4391256;32;20161;-67
2022/01/24 02:32:19;;;;;;;14.55;8.13;;;-9.70;99.90;;;;;;4390633;32;20076;-66
2022/01/24 02:34:49;;;;;;;14.20;7.78;;;-9.50;99.90;;;;;;4377170;32;20451;-66
2022/01/24 02:37:19;;;;;;;13.50;7.28;;;-9.60;99.90;;;;;;4378710;32;20503;-66
2022/01/24 02:39:50;;;;;;;13.20;7.47;;;-9.40;99.90;;;;;;4377425;32;20168;-67
2022/01/24 02:53:20;;;;;;;11.45;7.18;;;-9.60;99.90;;;;;;4391057;32;20504;-66
2022/01/24 02:55:47;;;;;;;11.27;7.03;;;-9.60;99.90;;;;;;4389834;32;20084;-67
2022/01/24 02:58:15;;;;;;;12.68;7.62;;;-9.70;99.90;;;;;;4390116;32;20101;-66
2022/01/24 03:00:42;;;;;;;12.13;7.70;;;-9.70;99.90;;;;;;4390096;32;20073;-66
2022/01/24 03:03:08;;;;;;;14.75;8.02;;;-9.80;99.90;;;;;;4377791;32;20100;-67
2022/01/24 03:05:35;;;;;;;12.43;7.37;;;-9.80;99.90;;;;;;4377361;32;20171;-67
2022/01/24 03:08:01;;;;;;;11.25;6.22;;;-9.70;99.90;;;;;;4377229;32;20085;-66
2022/01/24 03:10:35;;;;;;;11.65;6.68;;;-9.80;99.90;;;;;;4377746;32;20069;-67
2022/01/24 03:15:38;;;;;;;9.52;6.03;;;-9.70;99.90;;;;;;4391070;32;20137;-66
2022/01/24 03:18:06;;;;;;;14.38;6.20;;;-9.80;99.90;;;;;;4393369;32;20089;-67
2022/01/24 03:20:33;;;;;;;9.93;6.15;;;-9.80;99.90;;;;;;4380337;32;20098;-66
2022/01/24 03:23:00;;;;;;;8.90;5.72;;;-9.70;99.90;;;;;;4392601;32;20077;-66
2022/01/24 03:25:27;;;;;;;9.75;5.85;;;-9.70;99.90;;;;;;4392947;32;20077;-67
2022/01/24 03:27:54;;;;;;;9.57;5.82;;;-9.80;99.90;;;;;;4380869;32;20085;-66
2022/01/24 03:30:20;;;;;;;10.43;6.07;;;-9.70;99.90;;;;;;4393934;32;20125;-66
2022/01/24 03:32:46;;;;;;;8.60;5.65;;;-9.70;99.90;;;;;;4393877;32;20510;-66
2022/01/24 03:35:13;;;;;;;9.90;5.07;;;-9.70;99.90;;;;;;4393726;32;20448;-67
2022/01/24 03:37:40;;;;;;;11.00;5.53;;;-9.80;99.90;;;;;;4392606;32;20116;-66
2022/01/24 03:40:07;;;;;;;9.10;4.97;;;-9.70;99.90;;;;;;4380498;32;20086;-66
2022/01/24 03:42:34;;;;;;;8.10;5.05;;;-9.70;99.90;;;;;;4394342;32;20081;-66
2022/01/24 03:45:04;;;;;;;0.60;0.60;;;-9.70;99.90;;;;;;4367798;32;20145;-66
2022/01/24 03:49:57;;;;;;;10.50;6.80;;;-9.90;99.90;;;;;;4394552;32;20149;-66
2022/01/24 03:52:24;;;;;;;11.00;6.40;;;-9.80;99.90;;;;;;4381380;32;20078;-68
2022/01/24 03:54:51;;;;;;;12.52;6.10;;;-9.90;99.90;;;;;;4394695;32;20167;-67
2022/01/24 03:57:20;;;;;;;8.90;5.72;;;-9.90;99.90;;;;;;4394548;32;20074;-66
2022/01/24 03:59:47;;;;;;;10.27;6.45;;;-10.00;99.90;;;;;;4380577;32;20496;-67
2022/01/24 04:02:16;;;;;;;10.98;6.40;;;-10.20;99.90;;;;;;4393670;32;20454;-66
2022/01/24 04:04:43;;;;;;;10.98;6.60;;;-10.20;99.90;;;;;;4392167;32;20062;-67
2022/01/24 04:07:09;;;;;;;11.70;6.45;;;-10.10;99.90;;;;;;4380161;32;20173;-66
2022/01/24 04:09:38;;;;;;;11.12;6.87;;;-10.20;99.90;;;;;;4393955;32;20153;-65
2022/01/24 04:12:07;;;;;;;11.80;6.40;;;-10.20;99.90;;;;;;4392167;32;20141;-65
2022/01/24 04:22:16;;;;;;;13.38;7.60;;;-10.50;99.90;;;;;;4392204;32;20150;-66
2022/01/24 04:24:45;;;;;;;13.35;7.87;;;-10.50;99.90;;;;;;4393474;32;20100;-66
2022/01/24 04:27:15;;;;;;;12.52;8.75;;;-10.30;99.90;;;;;;4378991;32;20089;-65
2022/01/24 04:29:43;;;;;;;13.85;8.82;;;-10.50;99.90;;;;;;4380499;32;20077;-66
2022/01/24 04:32:10;;;;;;;13.45;8.25;;;-10.60;99.90;;;;;;4392331;32;20081;-65
2022/01/24 04:34:37;;;;;;;15.88;8.95;;;-10.50;99.90;;;;;;4391738;32;20089;-66
2022/01/24 04:37:04;;;;;;;14.52;8.90;;;-10.40;99.90;;;;;;4391696;32;20143;-65
2022/01/24 04:39:30;;;;;;;13.93;8.48;;;-10.20;99.90;;;;;;4379870;32;20096;-66
2022/01/24 04:41:58;;;;;;;16.58;8.30;;;-10.10;99.90;;;;;;4379452;32;20463;-66
2022/01/24 04:44:46;;;;;;;14.73;7.60;;;-10.10;99.90;;;;;;4391668;32;20094;-66
2022/01/24 04:52:52;;;;;;;14.82;7.50;;;-10.20;99.90;;;;;;4392834;32;20436;-65
2022/01/24 04:55:19;;;;;;;10.77;6.68;;;-10.30;99.90;;;;;;4391672;32;20235;-64
2022/01/24 04:57:48;;;;;;;14.87;7.97;;;-10.50;99.90;;;;;;4393195;32;20074;-69
2022/01/24 05:00:15;;;;;;;14.93;8.60;;;-10.10;99.90;;;;;;4392556;32;20074;-65
2022/01/24 05:02:41;;;;;;;17.70;9.13;;;-10.00;99.90;;;;;;4393733;32;20081;-65
2022/01/24 05:05:12;;;;;;;16.23;9.88;;;-10.00;99.90;;;;;;4392911;32;20086;-66
2022/01/24 05:07:39;;;;;;;18.58;9.27;;;-10.00;99.90;;;;;;4392094;32;20081;-65
2022/01/24 05:10:34;;;;;;;13.10;8.00;;;-9.70;99.90;;;;;;4391578;32;20096;-65
2022/01/24 05:23:54;;;;;;;15.25;9.25;;;-9.20;99.90;;;;;;4398704;32;20077;-66
2022/01/24 05:26:21;;;;;;;15.95;8.38;;;-9.10;99.90;;;;;;4397215;32;20081;-65
2022/01/24 05:28:47;;;;;;;14.48;9.20;;;-9.00;99.90;;;;;;4395597;32;20078;-64
2022/01/24 05:31:13;;;;;;;15.73;8.50;;;-8.90;99.90;;;;;;4392525;32;20087;-64
2022/01/24 05:33:40;;;;;;;15.63;9.45;;;-8.90;99.90;;;;;;4392706;32;20104;-63
2022/01/24 05:36:06;;;;;;;15.43;9.73;;;-9.30;99.90;;;;;;4392486;32;20100;-65
2022/01/24 05:38:33;;;;;;;16.12;9.50;;;-9.20;99.90;;;;;;4392069;32;20158;-65
2022/01/24 05:40:59;;;;;;;16.42;9.80;;;-9.20;99.90;;;;;;4378589;32;20081;-64
2022/01/24 05:43:25;;;;;;;14.45;8.50;;;-9.50;99.90;;;;;;4392581;32;20078;-65
2022/01/24 05:45:52;;;;;;;14.13;8.25;;;-9.50;99.90;;;;;;4390860;32;20464;-64
2022/01/24 05:48:18;;;;;;;14.13;8.48;;;-9.40;99.90;;;;;;4391995;32;20085;-64
2022/01/24 05:50:45;;;;;;;17.08;8.52;;;-9.30;99.90;;;;;;4392160;32;20511;-66
2022/01/24 05:53:11;;;;;;;14.15;7.68;;;-9.30;99.90;;;;;;4390503;32;20097;-64
2022/01/24 05:55:37;;;;;;;14.70;8.25;;;-9.20;99.90;;;;;;4390745;32;20081;-65
2022/01/24 05:58:04;;;;;;;18.10;9.75;;;-9.00;99.90;;;;;;4391053;32;20086;-65
2022/01/24 06:00:30;;;;;;;15.68;7.90;;;-9.10;99.90;;;;;;4392082;32;20089;-66
2022/01/24 06:02:57;;;;;;;17.45;10.52;;;-8.80;99.90;;;;;;4377866;32;20150;-64
2022/01/24 06:05:23;;;;;;;15.02;9.50;;;-8.90;99.90;;;;;;4392774;32;20073;-64
2022/01/24 06:07:49;;;;;;;15.82;9.75;;;-9.00;99.90;;;;;;4380738;32;20527;-63
2022/01/24 06:10:17;;;;;;;16.12;10.57;;;-8.50;99.90;;;;;;4392281;32;20082;-63
2022/01/24 06:12:44;;;;;;;20.20;11.00;;;-8.30;99.90;;;;;;4395114;32;20069;-67
2022/01/24 06:15:10;;;;;;;34.45;17.40;;;-8.70;99.90;;;;;;4394215;32;20158;-71
2022/01/24 06:17:37;;;;;;;40.60;20.98;;;-8.60;99.90;;;;;;4365629;32;20067;-63
2022/01/24 06:20:05;;;;;;;44.55;22.50;;;-8.60;99.90;;;;;;4390754;32;20089;-63
2022/01/24 06:22:46;;;;;;;39.07;23.10;;;-8.40;99.90;;;;;;3857356;37;20074;-63
2022/01/24 06:25:14;;;;;;;30.85;19.77;;;-9.00;99.90;;;;;;4418054;32;20442;-65
2022/01/24 06:27:40;;;;;;;30.67;19.25;;;-9.60;99.90;;;;;;4419595;32;20057;-63
2022/01/24 06:30:07;;;;;;;31.17;20.35;;;-9.50;99.90;;;;;;4419384;32;20152;-64
2022/01/24 06:32:34;;;;;;;29.08;16.55;;;-9.50;99.90;;;;;;4418729;32;20095;-65
2022/01/24 06:35:00;;;;;;;26.77;15.10;;;-9.30;99.90;;;;;;4418147;32;20515;-64
2022/01/24 06:37:27;;;;;;;28.00;17.67;;;-9.10;99.90;;;;;;4417892;32;20441;-63
2022/01/24 06:39:54;;;;;;;29.70;19.02;;;-9.00;99.90;;;;;;4405448;32;20178;-64
2022/01/24 06:42:23;;;;;;;31.48;20.12;;;-9.10;99.90;;;;;;4418028;32;20103;-65
2022/01/24 06:44:51;;;;;;;34.38;22.42;;;-9.40;99.90;;;;;;4405139;32;20113;-65
2022/01/24 06:47:18;;;;;;;28.20;18.35;;;-9.80;99.90;;;;;;4405175;32;20077;-64
2022/01/24 06:49:44;;;;;;;25.98;17.15;;;-9.70;99.90;;;;;;4417845;32;20436;-64
2022/01/24 06:52:11;;;;;;;21.60;13.80;;;-9.50;99.90;;;;;;4405130;32;20066;-65
2022/01/24 06:54:41;;;;;;;24.77;16.62;;;-9.50;99.90;;;;;;4419558;32;20085;-64
2022/01/24 06:57:11;;;;;;;22.42;14.77;;;-9.70;99.90;;;;;;4418181;32;20077;-65
2022/01/24 06:59:42;;;;;;;17.05;10.30;;;-9.70;99.90;;;;;;4405680;32;20080;-63
2022/01/24 07:02:10;;;;;;;18.92;11.90;;;-9.70;99.90;;;;;;4417694;32;20085;-64
2022/01/24 07:04:39;;;;;;;22.50;13.95;;;-9.60;99.90;;;;;;4392675;32;20084;-63
2022/01/24 07:07:07;;;;;;;26.52;15.38;;;-9.70;99.90;;;;;;4404975;32;20081;-62
2022/01/24 07:09:34;;;;;;;35.50;18.60;;;-9.80;99.90;;;;;;4404905;32;20092;-63
2022/01/24 07:12:00;;;;;;;34.05;21.08;;;-9.70;99.90;;;;;;4393075;32;20085;-64
2022/01/24 07:14:27;;;;;;;32.15;19.85;;;-9.70;99.90;;;;;;4417906;32;20081;-63
2022/01/24 07:19:24;;;;;;;32.67;19.67;;;-9.90;99.90;;;;;;4417449;32;20084;-63
2022/01/24 07:21:51;;;;;;;27.62;18.02;;;-9.80;99.90;;;;;;4402043;32;20089;-63
2022/01/24 07:24:17;;;;;;;28.62;17.45;;;-9.70;99.90;;;;;;4402346;32;20088;-63
2022/01/24 07:26:43;;;;;;;29.87;17.55;;;-9.60;99.90;;;;;;4402996;32;20089;-63
2022/01/24 07:29:10;;;;;;;28.35;17.12;;;-9.60;99.90;;;;;;4402859;32;20101;-62
2022/01/24 07:31:36;;;;;;;26.15;17.20;;;-9.40;99.90;;;;;;4402568;32;20078;-63
2022/01/24 07:34:03;;;;;;;30.25;18.37;;;-9.40;99.90;;;;;;4393003;32;20493;-63
2022/01/24 07:36:30;;;;;;;31.35;18.52;;;-9.10;99.90;;;;;;4393350;32;20082;-62
2022/01/24 07:38:57;;;;;;;30.73;19.15;;;-9.30;99.90;;;;;;4393100;32;20170;-62
2022/01/24 07:41:26;;;;;;;32.85;20.33;;;-9.20;99.90;;;;;;4379428;32;20074;-62
2022/01/24 07:43:54;;;;;;;32.47;22.60;;;-9.40;99.90;;;;;;4393091;32;20074;-63
2022/01/24 07:46:21;;;;;;;30.73;20.62;;;-9.00;99.90;;;;;;4391588;32;20504;-63
2022/01/24 07:48:48;;;;;;;29.23;18.45;;;-9.00;99.90;;;;;;4383370;32;20092;-63
2022/01/24 07:51:15;;;;;;;29.05;19.85;;;-8.80;99.90;;;;;;4388842;32;20074;-63
2022/01/24 07:53:44;;;;;;;29.23;18.80;;;-8.70;99.90;;;;;;4379036;32;20084;-63
2022/01/24 07:56:11;;;;;;;35.15;22.05;;;-8.80;99.90;;;;;;4390349;32;20194;-63
2022/01/24 07:58:40;;;;;;;36.85;23.12;;;-8.90;99.90;;;;;;4388638;32;20502;-62
2022/01/24 08:01:08;;;;;;;33.60;21.75;;;-8.90;99.90;;;;;;4376483;32;20512;-61
2022/01/24 08:03:34;;;;;;;33.17;21.05;;;-8.70;99.90;;;;;;4388586;32;20082;-64
2022/01/24 08:06:01;;;;;;;22.58;14.50;;;-8.70;99.90;;;;;;4384019;32;20089;-63
2022/01/24 08:08:27;;;;;;;23.38;14.77;;;-8.90;99.90;;;;;;4389118;32;20092;-63
2022/01/24 08:10:55;;;;;;;25.35;15.30;;;-8.90;99.90;;;;;;4387014;32;20108;-64
2022/01/24 08:13:24;;;;;;;21.23;13.23;;;-8.80;99.90;;;;;;4374421;32;20504;-63
2022/01/24 08:15:51;;;;;;;17.80;10.88;;;-8.50;99.90;;;;;;4389134;32;20117;-64
2022/01/24 08:18:18;;;;;;;17.35;9.20;;;-8.60;99.90;;;;;;4374686;32;20057;-63
2022/01/24 08:20:44;;;;;;;16.80;10.23;;;-8.60;99.90;;;;;;4385970;32;20105;-69
2022/01/24 08:23:13;;;;;;;18.17;11.50;;;-8.40;99.90;;;;;;4388740;32;20082;-72
2022/01/24 08:25:40;;;;;;;16.58;10.90;;;-8.40;99.90;;;;;;4382491;32;20195;-69
2022/01/24 08:28:07;;;;;;;14.68;9.35;;;-8.40;99.90;;;;;;4364692;32;20104;-67
2022/01/24 08:30:34;;;;;;;15.98;8.50;;;-8.80;99.90;;;;;;4389025;32;20077;-68
2022/01/24 08:33:00;;;;;;;17.25;9.25;;;-8.90;99.90;;;;;;4397321;32;20117;-70
2022/01/24 08:35:27;;;;;;;12.27;5.85;;;-8.90;99.90;;;;;;4376776;32;20150;-68
2022/01/24 08:37:54;;;;;;;9.05;5.65;;;-9.20;99.90;;;;;;4386680;32;20549;-69
2022/01/24 08:40:25;;;;;;;8.98;5.87;;;-9.20;99.90;;;;;;4391368;32;20092;-68
2022/01/24 08:43:04;;;;;;;9.48;5.55;;;-8.90;99.90;;;;;;4375698;32;20533;-63
2022/01/24 08:48:14;;;;;;;7.90;5.30;;;-8.80;99.90;;;;;;4391107;32;20066;-63
2022/01/24 08:50:41;;;;;;;8.73;5.50;;;-9.00;99.90;;;;;;4376725;32;20061;-65
2022/01/24 08:53:09;;;;;;;8.35;4.87;;;-9.00;99.90;;;;;;4376180;32;20097;-63
2022/01/24 08:55:37;;;;;;;6.25;3.75;;;-9.00;99.90;;;;;;4378374;32;20096;-69
2022/01/24 08:58:06;;;;;;;8.20;4.37;;;-8.80;99.90;;;;;;4360913;32;20157;-66
2022/01/24 09:00:34;;;;;;;8.82;5.40;;;-9.00;99.90;;;;;;4385860;32;20090;-70
2022/01/24 09:03:01;;;;;;;8.70;4.70;;;-9.10;99.90;;;;;;4384560;32;20093;-70
2022/01/24 09:05:34;;;;;;;7.32;4.90;;;-8.90;99.90;;;;;;4380638;32;20453;-70
2022/01/24 09:08:04;;;;;;;9.50;5.65;;;-8.60;99.90;;;;;;4388845;32;20070;-71
2022/01/24 09:10:33;;;;;;;11.93;7.32;;;-8.60;99.90;;;;;;4363323;32;20170;-68
2022/01/24 09:12:59;;;;;;;13.02;7.10;;;-8.70;99.90;;;;;;4377274;32;20090;-67
2022/01/24 09:15:26;;;;;;;11.12;7.10;;;-8.50;99.90;;;;;;4366063;32;20093;-65
2022/01/24 09:17:52;;;;;;;10.25;6.90;;;-8.50;99.90;;;;;;4362838;32;20487;-68
2022/01/24 09:20:19;;;;;;;9.05;5.90;;;-8.20;99.90;;;;;;4371918;32;20106;-63
2022/01/24 09:22:47;;;;;;;9.00;5.78;;;-8.20;99.90;;;;;;4384738;32;20070;-67
2022/01/24 09:25:15;;;;;;;9.40;5.75;;;-8.10;99.90;;;;;;4384939;32;20155;-66
2022/01/24 09:27:45;;;;;;;9.07;5.80;;;-7.90;99.90;;;;;;4357483;32;20163;-66
2022/01/24 09:30:17;;;;;;;11.52;7.07;;;-7.70;99.90;;;;;;4380794;32;20101;-66
2022/01/24 09:32:44;;;;;;;15.05;9.82;;;-7.80;99.90;;;;;;4382711;32;20080;-67
2022/01/24 09:35:12;;;;;;;14.52;9.25;;;-8.10;99.90;;;;;;4383331;32;20082;-68
2022/01/24 09:37:40;;;;;;;16.12;9.00;;;-8.20;99.90;;;;;;4372432;32;20077;-68
2022/01/24 09:40:08;;;;;;;16.70;11.25;;;-8.30;99.90;;;;;;4386164;32;20066;-65
2022/01/24 09:42:34;;;;;;;17.95;9.90;;;-8.40;99.90;;;;;;4384282;32;20212;-67
2022/01/24 09:45:01;;;;;;;15.02;8.57;;;-8.30;99.90;;;;;;4383572;32;20630;-67
2022/01/24 09:47:28;;;;;;;11.00;7.37;;;-8.40;99.90;;;;;;4382250;32;20081;-68
2022/01/24 09:49:55;;;;;;;13.43;7.53;;;-8.10;99.90;;;;;;4371891;32;20070;-70
2022/01/24 09:52:22;;;;;;;11.00;6.80;;;-7.80;99.90;;;;;;4384517;32;20121;-64
2022/01/24 09:54:48;;;;;;;11.18;6.90;;;-7.40;99.90;;;;;;4370209;32;20097;-67
2022/01/24 09:57:15;;;;;;;12.02;6.93;;;-7.50;99.90;;;;;;4373281;32;20097;-68
2022/01/24 09:59:42;;;;;;;12.37;6.90;;;-7.30;99.90;;;;;;4384243;32;20513;-72
2022/01/24 10:02:09;;;;;;;9.50;6.28;;;-7.30;99.90;;;;;;4385480;32;20478;-73
2022/01/24 10:04:36;;;;;;;10.15;6.18;;;-7.40;99.90;;;;;;4356608;32;20066;-64
2022/01/24 10:07:15;;;;;;;10.60;6.22;;;-7.70;99.90;;;;;;4379311;32;20117;-65
2022/01/24 10:09:46;;;;;;;9.32;6.45;;;-8.00;99.90;;;;;;4383818;32;20070;-66
2022/01/24 10:17:41;;;;;;;8.50;5.65;;;-8.30;99.90;;;;;;4373461;32;20101;-65
2022/01/24 10:20:30;;;;;;;10.05;5.90;;;-8.40;99.90;;;;;;4370753;32;20161;-65
2022/01/24 10:23:06;;;;;;;8.98;4.95;;;-8.30;99.90;;;;;;4366626;32;20069;-67
2022/01/24 10:25:45;;;;;;;8.80;5.80;;;-8.40;99.90;;;;;;4378273;32;20070;-68
2022/01/24 10:28:11;;;;;;;10.00;6.00;;;-8.10;99.90;;;;;;4365301;32;20108;-67
2022/01/24 10:30:38;;;;;;;9.52;5.97;;;-8.20;99.90;;;;;;4371598;32;20495;-65
2022/01/24 10:33:04;;;;;;;8.95;4.93;;;-8.00;99.90;;;;;;4379105;32;20113;-69
2022/01/24 10:35:38;;;;;;;7.47;4.93;;;-8.10;99.90;;;;;;4380986;32;20089;-66
2022/01/24 10:38:53;;;;;;;9.95;5.30;;;-8.10;99.90;;;;;;4379112;32;20074;-69
2022/01/24 10:41:25;;;;;;;7.68;5.60;;;-7.90;99.90;;;;;;4370821;32;20561;-69
2022/01/24 10:43:56;;;;;;;6.28;4.68;;;-7.90;99.90;;;;;;4376293;32;20211;-70
2022/01/24 10:46:28;;;;;;;8.45;4.82;;;-8.00;99.90;;;;;;4368562;32;20115;-71
2022/01/24 10:49:15;;;;;;;7.95;4.70;;;-8.10;99.90;;;;;;4367259;32;20065;-71
2022/01/24 10:51:46;;;;;;;;;;;-8.20;99.90;;;;;;4357605;32;20540;-72
2022/01/24 10:54:27;;;;;;;9.02;5.03;;;-7.90;99.90;;;;;;4369872;32;19970;-65
2022/01/24 10:56:54;;;;;;;7.85;4.93;;;-7.80;99.90;;;;;;4382897;32;20066;-69
2022/01/24 10:59:24;;;;;;;9.27;5.05;;;-7.70;99.90;;;;;;4357736;32;20070;-68
2022/01/24 11:02:01;;;;;;;10.68;5.70;;;-7.50;99.90;;;;;;4357108;32;20206;-65
2022/01/24 11:04:28;;;;;;;10.45;6.00;;;-7.50;99.90;;;;;;4381962;32;20167;-62
2022/01/24 11:07:04;;;;;;;10.00;6.00;;;-7.50;99.90;;;;;;4389272;32;20137;-61
2022/01/24 11:09:36;;;;;;;8.23;5.78;;;-7.40;99.90;;;;;;4389587;32;20100;-62
2022/01/24 11:12:11;;;;;;;12.37;7.15;;;-7.60;99.90;;;;;;4391639;32;20050;-64
2022/01/24 11:14:43;;;;;;;11.80;6.82;;;-7.80;99.90;;;;;;4392652;32;20082;-63
2022/01/24 11:17:18;;;;;;;11.88;7.10;;;-7.60;99.90;;;;;;4380084;32;20070;-62
2022/01/24 11:19:54;;;;;;;14.77;9.00;;;-7.70;99.90;;;;;;4379957;32;20162;-63
2022/01/24 11:22:26;;;;;;;13.27;8.80;;;-7.40;99.90;;;;;;4380380;32;20176;-62
2022/01/24 11:24:58;;;;;;;9.10;6.25;;;-7.40;99.90;;;;;;4380367;32;20069;-62
2022/01/24 11:27:26;;;;;;;13.62;7.12;;;-7.40;99.90;;;;;;4380706;32;20487;-62
2022/01/24 11:30:08;;;;;;;14.38;9.10;;;-7.50;99.90;;;;;;4379612;32;20551;-62
2022/01/24 11:32:49;;;;;;;12.93;7.53;;;-7.90;99.90;;;;;;4380231;32;20492;-64
2022/01/24 11:35:38;;;;;;;10.18;6.32;;;-8.00;99.90;;;;;;4366561;32;20062;-62
2022/01/24 11:38:25;;;;;;;13.90;7.40;;;-7.80;99.90;;;;;;4392438;32;20073;-62
2022/01/24 11:40:57;;;;;;;13.40;6.70;;;-7.50;99.90;;;;;;4392778;32;20100;-62
2022/01/24 11:43:33;;;;;;;7.78;5.37;;;-7.40;99.90;;;;;;4380306;32;20166;-62
2022/01/24 11:46:06;;;;;;;10.82;6.72;;;-7.50;99.90;;;;;;4392259;32;20153;-62
2022/01/24 11:48:36;;;;;;;11.68;7.57;;;-7.30;99.90;;;;;;4379706;32;20645;-63
2022/01/24 11:51:11;;;;;;;9.70;6.65;;;-7.20;99.90;;;;;;4379070;32;20092;-63
2022/01/24 11:53:46;;;;;;;11.30;6.75;;;-7.20;99.90;;;;;;4392250;32;20503;-62
2022/01/24 11:56:29;;;;;;;13.50;6.32;;;-7.30;99.90;;;;;;4379394;32;20062;-62
2022/01/24 11:59:28;;;;;;;10.98;6.43;;;-7.60;99.90;;;;;;4379621;32;20070;-62
2022/01/24 12:02:23;;;;;;;12.75;7.62;;;-7.60;99.90;;;;;;4359477;32;20070;-63
2022/01/24 12:05:00;;;;;;;10.80;6.55;;;-7.50;99.90;;;;;;4379401;32;20106;-62
2022/01/24 12:07:31;;;;;;;11.25;6.85;;;-7.40;99.90;;;;;;4378996;32;20085;-62
2022/01/24 12:10:23;;;;;;;13.15;7.55;;;-7.30;99.90;;;;;;4391904;32;20165;-62
2022/01/24 12:12:51;;;;;;;10.05;7.25;;;-7.40;99.90;;;;;;4378812;32;20618;-63
2022/01/24 12:15:39;;;;;;;13.07;6.93;;;-7.90;99.90;;;;;;4393056;32;20078;-64
2022/01/24 12:18:21;;;;;;;13.15;6.22;;;-7.80;99.90;;;;;;4392999;32;20540;-64
2022/01/24 12:21:12;;;;;;;10.40;6.00;;;-7.50;99.90;;;;;;4378569;32;20501;-62
2022/01/24 12:23:50;;;;;;;10.13;6.40;;;-7.60;99.90;;;;;;4385604;32;20089;-64
2022/01/24 12:26:16;;;;;;;11.05;6.68;;;-7.90;99.90;;;;;;4392659;32;20092;-62
2022/01/24 12:28:42;;;;;;;12.30;7.20;;;-8.00;99.90;;;;;;4394971;32;20085;-66
2022/01/24 12:31:29;;;;;;;14.48;7.47;;;-8.10;99.90;;;;;;4379997;32;20077;-64
2022/01/24 12:33:55;;;;;;;;;;;-8.10;99.90;;;;;;4379309;32;20081;-64
2022/01/24 12:36:52;;;;;;;16.00;8.82;;;-8.20;99.90;;;;;;4378060;32;19983;-63
2022/01/24 12:39:53;;;;;;;15.43;8.45;;;-8.50;99.90;;;;;;4382214;32;20113;-70
2022/01/24 12:42:40;;;;;;;17.02;8.82;;;-8.50;99.90;;;;;;4366475;32;20227;-71
2022/01/24 12:48:16;;;;;;;15.20;8.98;;;-8.40;99.90;;;;;;4384378;32;20540;-66
2022/01/24 12:50:54;;;;;;;14.27;7.72;;;-8.30;99.90;;;;;;4358348;32;20093;-68
2022/01/24 12:53:22;;;;;;;17.08;8.02;;;-8.20;99.90;;;;;;4372900;32;20094;-66
2022/01/24 12:56:03;;;;;;;13.32;8.48;;;-8.40;99.90;;;;;;4380364;32;20493;-68
2022/01/24 12:58:32;;;;;;;11.25;7.40;;;-8.50;99.90;;;;;;4369847;32;20073;-65
2022/01/24 13:00:59;;;;;;;11.65;7.50;;;-8.40;99.90;;;;;;4366975;32;20096;-69
2022/01/24 13:03:25;;;;;;;10.35;6.78;;;-8.50;99.90;;;;;;4394582;32;20574;-71
2022/01/24 13:05:51;;;;;;;10.60;6.18;;;-8.50;99.90;;;;;;4362644;32;20078;-69
2022/01/24 13:08:18;;;;;;;11.02;6.10;;;-8.70;99.90;;;;;;4368287;32;20059;-69
2022/01/24 13:10:48;;;;;;;13.07;6.47;;;-8.50;99.90;;;;;;4385142;32;20088;-73
2022/01/24 13:13:15;;;;;;;9.82;5.60;;;-8.50;99.90;;;;;;4382843;32;20590;-67
2022/01/24 13:21:19;;;;;;;14.43;7.70;;;-8.80;99.90;;;;;;4392079;32;20081;-67
2022/01/24 13:23:59;;;;;;;12.57;7.70;;;-8.90;99.90;;;;;;4392783;32;20069;-67
2022/01/24 13:26:27;;;;;;;11.02;7.35;;;-8.90;99.90;;;;;;4375162;32;20084;-68
2022/01/24 13:29:08;;;;;;;12.48;7.50;;;-9.00;99.90;;;;;;4383431;32;20566;-65
2022/01/24 13:31:34;;;;;;;11.60;8.10;;;-9.00;99.90;;;;;;4379229;32;20171;-66
2022/01/24 13:34:08;;;;;;;16.08;10.77;;;-9.30;99.90;;;;;;4387281;32;20516;-63
2022/01/24 13:36:34;;;;;;;19.12;12.77;;;-9.30;99.90;;;;;;4393075;32;20114;-64
2022/01/24 13:39:01;;;;;;;19.42;10.98;;;-9.30;99.90;;;;;;4380432;32;20069;-67
2022/01/24 13:41:28;;;;;;;14.23;9.95;;;-9.40;99.90;;;;;;4383233;32;20105;-66
2022/01/24 13:43:59;;;;;;;17.98;10.57;;;-9.40;99.90;;;;;;4376583;32;20548;-66
2022/01/24 13:46:26;;;;;;;14.55;9.48;;;-9.50;99.90;;;;;;4376811;32;20138;-65
2022/01/24 13:49:02;;;;;;;18.55;9.45;;;-9.80;99.90;;;;;;4376569;32;20164;-63
2022/01/24 13:51:38;;;;;;;15.33;8.70;;;-9.80;99.90;;;;;;4367233;32;20085;-64
2022/01/24 13:54:06;;;;;;;;;;;-9.80;99.90;;;;;;4382291;32;20168;-63
2022/01/24 13:56:56;;;;;;;11.77;7.78;;;-9.80;99.90;;;;;;4384230;32;19969;-68
2022/01/24 13:59:29;;;;;;;19.55;11.00;;;-9.90;99.90;;;;;;4380650;32;20636;-68
2022/01/24 14:02:16;;;;;;;16.58;10.48;;;-9.80;99.90;;;;;;4384879;32;20097;-73
2022/01/24 14:04:54;;;;;;;13.68;7.72;;;-10.00;99.90;;;;;;4388898;32;20169;-67
2022/01/24 14:07:43;;;;;;;12.50;8.43;;;-9.90;99.90;;;;;;4361557;32;20117;-65
2022/01/24 14:10:13;;;;;;;14.77;8.05;;;-10.00;99.90;;;;;;4374194;32;20178;-65
2022/01/24 14:12:52;;;;;;;11.32;7.15;;;-9.90;99.90;;;;;;4362734;32;20078;-63
2022/01/24 14:15:32;;;;;;;13.50;8.77;;;-9.80;99.90;;;;;;4361699;32;20523;-64
2022/01/24 14:20:51;;;;;;;30.27;17.35;;;-9.90;99.90;;;;;;4375701;32;20086;-64
2022/01/24 14:23:33;;;;;;;26.95;18.65;;;-10.00;99.90;;;;;;4375419;32;20452;-63
2022/01/24 14:25:59;;;;;;;35.25;19.87;;;-10.10;99.90;;;;;;4376214;32;20074;-65
2022/01/24 14:28:26;;;;;;;31.15;17.37;;;-10.30;99.90;;;;;;4374902;32;20077;-63
2022/01/24 14:30:55;;;;;;;27.75;15.40;;;-10.30;99.90;;;;;;4362545;32;20172;-65
2022/01/24 14:33:33;;;;;;;23.52;13.43;;;-10.30;99.90;;;;;;4361289;32;20186;-65
2022/01/24 14:36:04;;;;;;;18.65;10.95;;;-10.20;99.90;;;;;;4374953;32;20162;-63
2022/01/24 14:38:33;;;;;;;18.58;11.27;;;-10.30;99.90;;;;;;4376739;32;20078;-63
2022/01/24 14:41:25;;;;;;;16.40;9.25;;;-10.50;99.90;;;;;;4375346;32;20082;-63
2022/01/24 14:46:40;;;;;;;14.65;9.00;;;-10.30;99.90;;;;;;4379130;32;20082;-64
2022/01/24 14:49:13;;;;;;;13.70;8.18;;;-10.30;99.90;;;;;;4353017;32;20089;-64
2022/01/24 14:51:45;;;;;;;15.98;8.70;;;-10.10;99.90;;;;;;4378419;32;20089;-64
2022/01/24 14:54:18;;;;;;;13.88;8.10;;;-10.10;99.90;;;;;;4365309;32;20102;-64